Terminal Aerodrome Forecast
Issued by NWS Duluth, MN

Home | Current Version | Previous Version | Text Only | Print | Product List | Glossary On
Versions: 1 2 3 4 5 6 7 8 9 10 11 12 13 14 15 16 17
000
FTUS43 KDLH 180500
TAFDLH
TAF
KDLH 180520Z 1806/1906 VRB03KT P6SM SCT110
     FM181700 11008KT P6SM BKN250
     FM190000 08010KT P6SM OVC090=

USA.gov is the U.S. government's official web portal to all federal, state and local government web resources and services.